sensor_id;sensor_type;location;lat;lon;timestamp;temperature;humidity
41904;DHT22;27586;51.124;4.182;2024-02-16T00:00:17;12.80;99.90
41904;DHT22;27586;51.124;4.182;2024-02-16T00:02:44;12.80;99.90
41904;DHT22;27586;51.124;4.182;2024-02-16T00:05:10;12.90;99.90
41904;DHT22;27586;51.124;4.182;2024-02-16T00:07:39;12.90;99.90
41904;DHT22;27586;51.124;4.182;2024-02-16T00:10:06;12.90;99.90
41904;DHT22;27586;51.124;4.182;2024-02-16T00:12:32;12.90;99.90
41904;DHT22;27586;51.124;4.182;2024-02-16T00:14:59;12.90;99.90
41904;DHT22;27586;51.124;4.182;2024-02-16T00:17:25;12.90;99.90
41904;DHT22;27586;51.124;4.182;2024-02-16T00:19:53;12.90;99.90
41904;DHT22;27586;51.124;4.182;2024-02-16T00:22:19;12.90;99.90
41904;DHT22;27586;51.124;4.182;2024-02-16T00:24:44;12.90;99.90
41904;DHT22;27586;51.124;4.182;2024-02-16T00:27:10;12.90;99.90
41904;DHT22;27586;51.124;4.182;2024-02-16T00:29:36;12.90;99.90
41904;DHT22;27586;51.124;4.182;2024-02-16T00:32:04;12.90;99.90
41904;DHT22;27586;51.124;4.182;2024-02-16T00:34:32;12.90;99.90
41904;DHT22;27586;51.124;4.182;2024-02-16T00:36:58;12.90;99.90
41904;DHT22;27586;51.124;4.182;2024-02-16T00:39:23;12.90;99.90
41904;DHT22;27586;51.124;4.182;2024-02-16T00:41:50;12.90;99.90
41904;DHT22;27586;51.124;4.182;2024-02-16T00:44:17;12.90;99.90
41904;DHT22;27586;51.124;4.182;2024-02-16T00:46:46;12.90;99.90
41904;DHT22;27586;51.124;4.182;2024-02-16T00:49:11;12.90;99.90
41904;DHT22;27586;51.124;4.182;2024-02-16T00:51:38;12.90;99.90
41904;DHT22;27586;51.124;4.182;2024-02-16T00:54:04;12.90;99.90
41904;DHT22;27586;51.124;4.182;2024-02-16T00:56:31;12.80;99.90
41904;DHT22;27586;51.124;4.182;2024-02-16T00:58:57;12.80;99.90
41904;DHT22;27586;51.124;4.182;2024-02-16T01:01:23;12.80;99.90
41904;DHT22;27586;51.124;4.182;2024-02-16T01:03:54;12.80;99.90
41904;DHT22;27586;51.124;4.182;2024-02-16T01:06:19;12.70;99.90
41904;DHT22;27586;51.124;4.182;2024-02-16T01:08:45;12.70;99.90
41904;DHT22;27586;51.124;4.182;2024-02-16T01:11:12;12.70;99.90
41904;DHT22;27586;51.124;4.182;2024-02-16T01:13:39;12.70;99.90
41904;DHT22;27586;51.124;4.182;2024-02-16T01:16:05;12.60;99.90
41904;DHT22;27586;51.124;4.182;2024-02-16T01:18:31;12.60;99.90
41904;DHT22;27586;51.124;4.182;2024-02-16T01:20:58;12.60;99.90
41904;DHT22;27586;51.124;4.182;2024-02-16T01:23:24;12.60;99.90
41904;DHT22;27586;51.124;4.182;2024-02-16T01:25:50;12.60;99.90
41904;DHT22;27586;51.124;4.182;2024-02-16T01:28:16;12.70;99.90
41904;DHT22;27586;51.124;4.182;2024-02-16T01:30:42;12.70;99.90
41904;DHT22;27586;51.124;4.182;2024-02-16T01:33:07;12.70;99.90
41904;DHT22;27586;51.124;4.182;2024-02-16T01:35:34;12.70;99.90
41904;DHT22;27586;51.124;4.182;2024-02-16T01:38:00;12.70;99.90
41904;DHT22;27586;51.124;4.182;2024-02-16T01:40:27;12.80;99.90
41904;DHT22;27586;51.124;4.182;2024-02-16T01:42:53;12.80;99.90
41904;DHT22;27586;51.124;4.182;2024-02-16T01:45:19;12.80;99.90
41904;DHT22;27586;51.124;4.182;2024-02-16T01:47:46;12.80;99.90
41904;DHT22;27586;51.124;4.182;2024-02-16T01:50:14;12.80;99.90
41904;DHT22;27586;51.124;4.182;2024-02-16T01:52:40;12.80;99.90
41904;DHT22;27586;51.124;4.182;2024-02-16T01:55:06;12.90;99.90
41904;DHT22;27586;51.124;4.182;2024-02-16T01:57:36;12.90;99.90
41904;DHT22;27586;51.124;4.182;2024-02-16T02:00:03;13.00;99.90
41904;DHT22;27586;51.124;4.182;2024-02-16T02:02:28;13.00;99.90
41904;DHT22;27586;51.124;4.182;2024-02-16T02:04:54;12.90;99.90
41904;DHT22;27586;51.124;4.182;2024-02-16T02:07:25;12.90;99.90
41904;DHT22;27586;51.124;4.182;2024-02-16T02:09:51;12.90;99.90
41904;DHT22;27586;51.124;4.182;2024-02-16T02:12:17;13.00;99.90
41904;DHT22;27586;51.124;4.182;2024-02-16T02:14:43;13.00;99.90
41904;DHT22;27586;51.124;4.182;2024-02-16T02:17:09;13.00;99.90
41904;DHT22;27586;51.124;4.182;2024-02-16T02:19:35;13.10;99.90
41904;DHT22;27586;51.124;4.182;2024-02-16T02:22:01;13.10;99.90
41904;DHT22;27586;51.124;4.182;2024-02-16T02:24:26;13.10;99.90
41904;DHT22;27586;51.124;4.182;2024-02-16T02:26:52;13.10;99.90
41904;DHT22;27586;51.124;4.182;2024-02-16T02:29:18;13.00;99.90
41904;DHT22;27586;51.124;4.182;2024-02-16T02:31:43;13.00;99.90
41904;DHT22;27586;51.124;4.182;2024-02-16T02:34:09;13.00;99.90
41904;DHT22;27586;51.124;4.182;2024-02-16T02:36:36;12.90;99.90
41904;DHT22;27586;51.124;4.182;2024-02-16T02:39:01;12.90;99.90
41904;DHT22;27586;51.124;4.182;2024-02-16T02:41:27;12.90;99.90
41904;DHT22;27586;51.124;4.182;2024-02-16T02:43:53;12.90;99.90
41904;DHT22;27586;51.124;4.182;2024-02-16T02:46:18;12.90;99.90
41904;DHT22;27586;51.124;4.182;2024-02-16T02:48:45;12.90;99.90
41904;DHT22;27586;51.124;4.182;2024-02-16T02:51:11;12.90;99.90
41904;DHT22;27586;51.124;4.182;2024-02-16T02:53:37;12.90;99.90
41904;DHT22;27586;51.124;4.182;2024-02-16T02:56:03;12.90;99.90
41904;DHT22;27586;51.124;4.182;2024-02-16T02:58:29;12.90;99.90
41904;DHT22;27586;51.124;4.182;2024-02-16T03:00:55;12.90;99.90
41904;DHT22;27586;51.124;4.182;2024-02-16T03:03:22;12.90;99.90
41904;DHT22;27586;51.124;4.182;2024-02-16T03:05:48;12.90;99.90
41904;DHT22;27586;51.124;4.182;2024-02-16T03:08:14;12.90;99.90
41904;DHT22;27586;51.124;4.182;2024-02-16T03:10:40;12.90;99.90
41904;DHT22;27586;51.124;4.182;2024-02-16T03:13:06;12.90;99.90
41904;DHT22;27586;51.124;4.182;2024-02-16T03:15:35;12.90;99.90
41904;DHT22;27586;51.124;4.182;2024-02-16T03:18:01;12.90;99.90
41904;DHT22;27586;51.124;4.182;2024-02-16T03:20:27;12.90;99.90
41904;DHT22;27586;51.124;4.182;2024-02-16T03:22:53;12.90;99.90
41904;DHT22;27586;51.124;4.182;2024-02-16T03:25:19;12.90;99.90
41904;DHT22;27586;51.124;4.182;2024-02-16T03:27:45;13.00;99.90
41904;DHT22;27586;51.124;4.182;2024-02-16T03:30:11;12.90;99.90
41904;DHT22;27586;51.124;4.182;2024-02-16T03:32:37;12.90;99.90
41904;DHT22;27586;51.124;4.182;2024-02-16T03:35:03;13.00;99.90
41904;DHT22;27586;51.124;4.182;2024-02-16T03:37:29;13.00;99.90
41904;DHT22;27586;51.124;4.182;2024-02-16T03:39:56;13.00;99.90
41904;DHT22;27586;51.124;4.182;2024-02-16T03:42:21;12.90;99.90
41904;DHT22;27586;51.124;4.182;2024-02-16T03:44:47;13.00;99.90
41904;DHT22;27586;51.124;4.182;2024-02-16T03:47:13;13.00;99.90
41904;DHT22;27586;51.124;4.182;2024-02-16T03:49:39;13.10;99.90
41904;DHT22;27586;51.124;4.182;2024-02-16T03:52:05;13.10;99.90
41904;DHT22;27586;51.124;4.182;2024-02-16T03:54:31;13.10;99.90
41904;DHT22;27586;51.124;4.182;2024-02-16T03:56:57;13.00;99.90
41904;DHT22;27586;51.124;4.182;2024-02-16T03:59:23;13.10;99.90
41904;DHT22;27586;51.124;4.182;2024-02-16T04:01:49;13.10;99.90
41904;DHT22;27586;51.124;4.182;2024-02-16T04:04:16;13.10;99.90
41904;DHT22;27586;51.124;4.182;2024-02-16T04:06:41;13.10;99.90
41904;DHT22;27586;51.124;4.182;2024-02-16T04:09:07;13.10;99.90
41904;DHT22;27586;51.124;4.182;2024-02-16T04:11:34;13.10;99.90
41904;DHT22;27586;51.124;4.182;2024-02-16T04:13:59;13.10;99.90
41904;DHT22;27586;51.124;4.182;2024-02-16T04:16:25;13.20;99.90
41904;DHT22;27586;51.124;4.182;2024-02-16T04:18:53;13.10;99.90
41904;DHT22;27586;51.124;4.182;2024-02-16T04:21:20;13.20;99.90
41904;DHT22;27586;51.124;4.182;2024-02-16T04:23:46;13.20;99.90
41904;DHT22;27586;51.124;4.182;2024-02-16T04:26:12;13.10;99.90
41904;DHT22;27586;51.124;4.182;2024-02-16T04:28:37;13.20;99.90
41904;DHT22;27586;51.124;4.182;2024-02-16T04:31:04;13.20;99.90
41904;DHT22;27586;51.124;4.182;2024-02-16T04:33:30;13.10;99.90
41904;DHT22;27586;51.124;4.182;2024-02-16T04:35:56;13.10;99.90
41904;DHT22;27586;51.124;4.182;2024-02-16T04:38:21;13.10;99.90
41904;DHT22;27586;51.124;4.182;2024-02-16T04:40:47;13.10;99.90
41904;DHT22;27586;51.124;4.182;2024-02-16T04:43:12;13.10;99.90
41904;DHT22;27586;51.124;4.182;2024-02-16T04:45:38;13.10;99.90
41904;DHT22;27586;51.124;4.182;2024-02-16T04:48:05;13.20;99.90
41904;DHT22;27586;51.124;4.182;2024-02-16T04:50:32;13.10;99.90
41904;DHT22;27586;51.124;4.182;2024-02-16T04:52:58;13.20;99.90
41904;DHT22;27586;51.124;4.182;2024-02-16T04:55:23;13.20;99.90
41904;DHT22;27586;51.124;4.182;2024-02-16T04:57:49;13.10;99.90
41904;DHT22;27586;51.124;4.182;2024-02-16T05:00:15;13.10;99.90
41904;DHT22;27586;51.124;4.182;2024-02-16T05:02:41;13.10;99.90
41904;DHT22;27586;51.124;4.182;2024-02-16T05:05:06;13.10;99.90
41904;DHT22;27586;51.124;4.182;2024-02-16T05:07:33;13.20;99.90
41904;DHT22;27586;51.124;4.182;2024-02-16T05:09:59;13.20;99.90
41904;DHT22;27586;51.124;4.182;2024-02-16T05:12:25;13.10;99.90
41904;DHT22;27586;51.124;4.182;2024-02-16T05:14:51;13.10;99.90
41904;DHT22;27586;51.124;4.182;2024-02-16T05:17:19;13.10;99.90
41904;DHT22;27586;51.124;4.182;2024-02-16T05:19:45;13.10;99.90
41904;DHT22;27586;51.124;4.182;2024-02-16T05:22:11;13.00;99.90
41904;DHT22;27586;51.124;4.182;2024-02-16T05:24:37;13.10;99.90
41904;DHT22;27586;51.124;4.182;2024-02-16T05:27:02;13.00;99.90
41904;DHT22;27586;51.124;4.182;2024-02-16T05:29:28;13.00;99.90
41904;DHT22;27586;51.124;4.182;2024-02-16T05:31:54;13.00;99.90
41904;DHT22;27586;51.124;4.182;2024-02-16T05:34:19;13.00;99.90
41904;DHT22;27586;51.124;4.182;2024-02-16T05:36:45;12.90;99.90
41904;DHT22;27586;51.124;4.182;2024-02-16T05:39:11;12.90;99.90
41904;DHT22;27586;51.124;4.182;2024-02-16T05:41:57;12.90;99.90
41904;DHT22;27586;51.124;4.182;2024-02-16T05:44:23;12.90;99.90
41904;DHT22;27586;51.124;4.182;2024-02-16T05:46:49;12.90;99.90
41904;DHT22;27586;51.124;4.182;2024-02-16T05:49:15;12.90;99.90
41904;DHT22;27586;51.124;4.182;2024-02-16T05:51:43;12.80;99.90
41904;DHT22;27586;51.124;4.182;2024-02-16T05:54:29;12.90;99.90
41904;DHT22;27586;51.124;4.182;2024-02-16T05:56:54;12.80;99.90
41904;DHT22;27586;51.124;4.182;2024-02-16T05:59:20;12.80;99.90
41904;DHT22;27586;51.124;4.182;2024-02-16T06:01:47;12.80;99.90
41904;DHT22;27586;51.124;4.182;2024-02-16T06:04:13;12.90;99.90
41904;DHT22;27586;51.124;4.182;2024-02-16T06:06:38;12.90;99.90
41904;DHT22;27586;51.124;4.182;2024-02-16T06:09:04;12.90;99.90
41904;DHT22;27586;51.124;4.182;2024-02-16T06:11:31;12.90;99.90
41904;DHT22;27586;51.124;4.182;2024-02-16T06:13:57;12.90;99.90
41904;DHT22;27586;51.124;4.182;2024-02-16T06:16:23;12.90;99.90
41904;DHT22;27586;51.124;4.182;2024-02-16T06:18:48;12.90;99.90
41904;DHT22;27586;51.124;4.182;2024-02-16T06:21:14;12.90;99.90
41904;DHT22;27586;51.124;4.182;2024-02-16T06:23:41;12.90;99.90
41904;DHT22;27586;51.124;4.182;2024-02-16T06:26:07;13.00;99.90
41904;DHT22;27586;51.124;4.182;2024-02-16T06:28:32;12.90;99.90
41904;DHT22;27586;51.124;4.182;2024-02-16T06:30:58;12.90;99.90
41904;DHT22;27586;51.124;4.182;2024-02-16T06:33:24;13.00;99.90
41904;DHT22;27586;51.124;4.182;2024-02-16T06:35:49;13.00;99.90
41904;DHT22;27586;51.124;4.182;2024-02-16T06:38:15;13.00;99.90
41904;DHT22;27586;51.124;4.182;2024-02-16T06:40:41;13.00;99.90
41904;DHT22;27586;51.124;4.182;2024-02-16T06:43:07;13.00;99.90
41904;DHT22;27586;51.124;4.182;2024-02-16T06:45:34;13.00;99.90
41904;DHT22;27586;51.124;4.182;2024-02-16T06:47:59;13.00;99.90
41904;DHT22;27586;51.124;4.182;2024-02-16T06:50:25;13.10;99.90
41904;DHT22;27586;51.124;4.182;2024-02-16T06:52:51;13.10;99.90
41904;DHT22;27586;51.124;4.182;2024-02-16T06:55:17;13.20;99.90
41904;DHT22;27586;51.124;4.182;2024-02-16T06:57:42;13.20;99.90
41904;DHT22;27586;51.124;4.182;2024-02-16T07:00:09;13.20;99.90
41904;DHT22;27586;51.124;4.182;2024-02-16T07:02:35;13.10;99.90
41904;DHT22;27586;51.124;4.182;2024-02-16T07:05:01;13.20;99.90
41904;DHT22;27586;51.124;4.182;2024-02-16T07:07:27;13.20;99.90
41904;DHT22;27586;51.124;4.182;2024-02-16T07:09:52;13.20;99.90
41904;DHT22;27586;51.124;4.182;2024-02-16T07:12:18;13.10;99.90
41904;DHT22;27586;51.124;4.182;2024-02-16T07:14:44;13.00;99.90
41904;DHT22;27586;51.124;4.182;2024-02-16T07:17:12;13.10;99.90
41904;DHT22;27586;51.124;4.182;2024-02-16T07:19:37;13.10;99.90
41904;DHT22;27586;51.124;4.182;2024-02-16T07:22:03;13.10;99.90
41904;DHT22;27586;51.124;4.182;2024-02-16T07:24:31;13.10;99.90
41904;DHT22;27586;51.124;4.182;2024-02-16T07:26:57;13.10;99.90
41904;DHT22;27586;51.124;4.182;2024-02-16T07:29:23;13.10;99.90
41904;DHT22;27586;51.124;4.182;2024-02-16T07:31:48;13.20;99.90
41904;DHT22;27586;51.124;4.182;2024-02-16T07:34:16;13.20;99.90
41904;DHT22;27586;51.124;4.182;2024-02-16T07:36:42;13.20;99.90
41904;DHT22;27586;51.124;4.182;2024-02-16T07:39:08;13.20;99.90
41904;DHT22;27586;51.124;4.182;2024-02-16T07:41:37;13.20;99.90
41904;DHT22;27586;51.124;4.182;2024-02-16T07:44:04;13.20;99.90
41904;DHT22;27586;51.124;4.182;2024-02-16T07:46:30;13.20;99.90
41904;DHT22;27586;51.124;4.182;2024-02-16T07:48:55;13.20;99.90
41904;DHT22;27586;51.124;4.182;2024-02-16T07:51:21;13.20;99.90
41904;DHT22;27586;51.124;4.182;2024-02-16T07:53:47;13.20;99.90
41904;DHT22;27586;51.124;4.182;2024-02-16T07:56:12;13.20;99.90
41904;DHT22;27586;51.124;4.182;2024-02-16T07:58:41;13.20;99.90
41904;DHT22;27586;51.124;4.182;2024-02-16T08:01:08;13.20;99.90
41904;DHT22;27586;51.124;4.182;2024-02-16T08:03:36;13.30;99.90
41904;DHT22;27586;51.124;4.182;2024-02-16T08:06:02;13.20;99.90
41904;DHT22;27586;51.124;4.182;2024-02-16T08:08:29;13.30;99.90
41904;DHT22;27586;51.124;4.182;2024-02-16T08:10:54;13.30;99.90
41904;DHT22;27586;51.124;4.182;2024-02-16T08:13:20;13.30;99.90
41904;DHT22;27586;51.124;4.182;2024-02-16T08:15:46;13.40;99.90
41904;DHT22;27586;51.124;4.182;2024-02-16T08:18:12;13.50;99.90
41904;DHT22;27586;51.124;4.182;2024-02-16T08:20:38;13.50;99.90
41904;DHT22;27586;51.124;4.182;2024-02-16T08:23:04;13.50;99.90
41904;DHT22;27586;51.124;4.182;2024-02-16T08:25:30;13.50;99.90
41904;DHT22;27586;51.124;4.182;2024-02-16T08:27:56;13.50;99.90
41904;DHT22;27586;51.124;4.182;2024-02-16T08:30:21;13.60;99.90
41904;DHT22;27586;51.124;4.182;2024-02-16T08:32:47;13.50;99.90
41904;DHT22;27586;51.124;4.182;2024-02-16T08:35:13;13.60;99.90
41904;DHT22;27586;51.124;4.182;2024-02-16T08:37:42;13.60;99.90
41904;DHT22;27586;51.124;4.182;2024-02-16T08:40:08;13.60;99.90
41904;DHT22;27586;51.124;4.182;2024-02-16T08:42:42;13.60;99.90
41904;DHT22;27586;51.124;4.182;2024-02-16T08:45:08;13.60;99.90
41904;DHT22;27586;51.124;4.182;2024-02-16T08:47:34;13.60;99.90
41904;DHT22;27586;51.124;4.182;2024-02-16T08:50:00;13.60;99.90
41904;DHT22;27586;51.124;4.182;2024-02-16T08:52:26;13.70;99.90
41904;DHT22;27586;51.124;4.182;2024-02-16T08:54:52;13.80;99.90
41904;DHT22;27586;51.124;4.182;2024-02-16T08:57:17;13.70;99.90
41904;DHT22;27586;51.124;4.182;2024-02-16T08:59:43;13.80;99.90
41904;DHT22;27586;51.124;4.182;2024-02-16T09:02:10;13.70;99.90
41904;DHT22;27586;51.124;4.182;2024-02-16T09:04:35;13.70;99.90
41904;DHT22;27586;51.124;4.182;2024-02-16T09:07:02;13.70;99.90
41904;DHT22;27586;51.124;4.182;2024-02-16T09:09:28;13.70;99.90
41904;DHT22;27586;51.124;4.182;2024-02-16T09:11:54;13.70;99.90
41904;DHT22;27586;51.124;4.182;2024-02-16T09:14:19;13.80;99.90
41904;DHT22;27586;51.124;4.182;2024-02-16T09:16:48;13.80;99.90
41904;DHT22;27586;51.124;4.182;2024-02-16T09:19:17;13.80;99.90
41904;DHT22;27586;51.124;4.182;2024-02-16T09:21:42;13.80;99.90
41904;DHT22;27586;51.124;4.182;2024-02-16T09:24:08;13.80;99.90
41904;DHT22;27586;51.124;4.182;2024-02-16T09:26:36;13.80;99.90
41904;DHT22;27586;51.124;4.182;2024-02-16T09:29:02;13.80;99.90
41904;DHT22;27586;51.124;4.182;2024-02-16T09:31:28;13.70;99.90
41904;DHT22;27586;51.124;4.182;2024-02-16T09:33:53;13.70;99.90
41904;DHT22;27586;51.124;4.182;2024-02-16T09:36:19;13.70;99.90
41904;DHT22;27586;51.124;4.182;2024-02-16T09:38:45;13.70;99.90
41904;DHT22;27586;51.124;4.182;2024-02-16T09:41:10;13.80;99.90
41904;DHT22;27586;51.124;4.182;2024-02-16T09:43:37;13.80;99.90
41904;DHT22;27586;51.124;4.182;2024-02-16T09:46:05;13.80;99.90
41904;DHT22;27586;51.124;4.182;2024-02-16T09:48:31;13.80;99.90
41904;DHT22;27586;51.124;4.182;2024-02-16T09:50:57;13.80;99.90
41904;DHT22;27586;51.124;4.182;2024-02-16T09:53:28;13.80;99.90
41904;DHT22;27586;51.124;4.182;2024-02-16T09:55:54;13.80;99.90
41904;DHT22;27586;51.124;4.182;2024-02-16T09:58:20;13.80;99.90
41904;DHT22;27586;51.124;4.182;2024-02-16T10:00:52;13.90;99.90
41904;DHT22;27586;51.124;4.182;2024-02-16T10:03:37;13.90;99.90
41904;DHT22;27586;51.124;4.182;2024-02-16T10:06:06;13.80;99.90
41904;DHT22;27586;51.124;4.182;2024-02-16T10:08:33;13.70;99.90
41904;DHT22;27586;51.124;4.182;2024-02-16T10:11:05;13.60;99.90
41904;DHT22;27586;51.124;4.182;2024-02-16T10:13:32;13.50;99.90
41904;DHT22;27586;51.124;4.182;2024-02-16T10:16:07;13.60;99.90
41904;DHT22;27586;51.124;4.182;2024-02-16T10:18:37;13.40;99.90
41904;DHT22;27586;51.124;4.182;2024-02-16T10:21:04;13.50;99.90
41904;DHT22;27586;51.124;4.182;2024-02-16T10:23:30;13.50;99.90
41904;DHT22;27586;51.124;4.182;2024-02-16T10:25:56;13.50;99.90
41904;DHT22;27586;51.124;4.182;2024-02-16T10:28:24;13.50;99.90
41904;DHT22;27586;51.124;4.182;2024-02-16T10:30:59;13.50;99.90
41904;DHT22;27586;51.124;4.182;2024-02-16T10:33:30;13.50;99.90
41904;DHT22;27586;51.124;4.182;2024-02-16T10:35:58;13.60;99.90
41904;DHT22;27586;51.124;4.182;2024-02-16T10:38:25;13.50;99.90
41904;DHT22;27586;51.124;4.182;2024-02-16T10:40:53;13.40;99.90
41904;DHT22;27586;51.124;4.182;2024-02-16T10:43:21;13.40;99.90
41904;DHT22;27586;51.124;4.182;2024-02-16T10:45:48;13.40;99.90
41904;DHT22;27586;51.124;4.182;2024-02-16T10:48:18;13.40;99.90
41904;DHT22;27586;51.124;4.182;2024-02-16T10:50:44;13.30;99.90
41904;DHT22;27586;51.124;4.182;2024-02-16T10:53:21;13.30;99.90
41904;DHT22;27586;51.124;4.182;2024-02-16T10:55:49;13.40;99.90
41904;DHT22;27586;51.124;4.182;2024-02-16T10:58:17;13.30;99.90
41904;DHT22;27586;51.124;4.182;2024-02-16T11:00:50;13.30;99.90
41904;DHT22;27586;51.124;4.182;2024-02-16T11:03:17;13.20;99.90
41904;DHT22;27586;51.124;4.182;2024-02-16T11:05:48;13.20;99.90
41904;DHT22;27586;51.124;4.182;2024-02-16T11:08:16;13.20;99.90
41904;DHT22;27586;51.124;4.182;2024-02-16T11:11:01;13.20;99.90
41904;DHT22;27586;51.124;4.182;2024-02-16T11:13:33;13.20;99.90
41904;DHT22;27586;51.124;4.182;2024-02-16T11:16:03;13.20;99.90
41904;DHT22;27586;51.124;4.182;2024-02-16T11:18:29;13.20;99.90
41904;DHT22;27586;51.124;4.182;2024-02-16T11:20:55;13.20;99.90
41904;DHT22;27586;51.124;4.182;2024-02-16T11:23:31;13.30;99.90
41904;DHT22;27586;51.124;4.182;2024-02-16T11:26:01;13.30;99.90
41904;DHT22;27586;51.124;4.182;2024-02-16T11:28:28;13.20;99.90
41904;DHT22;27586;51.124;4.182;2024-02-16T11:30:56;13.20;99.90
41904;DHT22;27586;51.124;4.182;2024-02-16T11:33:22;13.30;99.90
41904;DHT22;27586;51.124;4.182;2024-02-16T11:35:58;13.30;99.90
41904;DHT22;27586;51.124;4.182;2024-02-16T11:38:25;13.30;99.90
41904;DHT22;27586;51.124;4.182;2024-02-16T11:40:58;13.40;99.90
41904;DHT22;27586;51.124;4.182;2024-02-16T11:43:24;13.30;99.90
41904;DHT22;27586;51.124;4.182;2024-02-16T11:45:51;13.40;99.90
41904;DHT22;27586;51.124;4.182;2024-02-16T11:48:25;13.40;99.90
41904;DHT22;27586;51.124;4.182;2024-02-16T11:51:03;13.40;99.90
41904;DHT22;27586;51.124;4.182;2024-02-16T11:53:32;13.50;99.90
41904;DHT22;27586;51.124;4.182;2024-02-16T11:55:58;13.50;99.90
41904;DHT22;27586;51.124;4.182;2024-02-16T11:58:24;13.50;99.90
41904;DHT22;27586;51.124;4.182;2024-02-16T12:00:51;13.60;99.90
41904;DHT22;27586;51.124;4.182;2024-02-16T12:03:24;13.60;99.90
41904;DHT22;27586;51.124;4.182;2024-02-16T12:05:54;13.60;99.90
41904;DHT22;27586;51.124;4.182;2024-02-16T12:08:21;13.60;99.90
41904;DHT22;27586;51.124;4.182;2024-02-16T12:10:51;13.50;99.90
41904;DHT22;27586;51.124;4.182;2024-02-16T12:13:20;13.50;99.90
41904;DHT22;27586;51.124;4.182;2024-02-16T12:15:50;13.40;99.90
41904;DHT22;27586;51.124;4.182;2024-02-16T12:18:24;13.40;99.90
41904;DHT22;27586;51.124;4.182;2024-02-16T12:21:06;13.40;99.90
41904;DHT22;27586;51.124;4.182;2024-02-16T12:23:32;13.40;99.90
41904;DHT22;27586;51.124;4.182;2024-02-16T12:26:02;13.40;99.90
41904;DHT22;27586;51.124;4.182;2024-02-16T12:28:29;13.50;99.90
41904;DHT22;27586;51.124;4.182;2024-02-16T12:30:57;13.50;99.90
41904;DHT22;27586;51.124;4.182;2024-02-16T12:33:23;13.60;99.90
41904;DHT22;27586;51.124;4.182;2024-02-16T12:35:49;13.60;99.90
41904;DHT22;27586;51.124;4.182;2024-02-16T12:38:15;13.60;99.90
41904;DHT22;27586;51.124;4.182;2024-02-16T12:40:51;13.80;99.90
41904;DHT22;27586;51.124;4.182;2024-02-16T12:43:16;13.90;99.90
41904;DHT22;27586;51.124;4.182;2024-02-16T12:45:44;14.10;99.90
41904;DHT22;27586;51.124;4.182;2024-02-16T12:48:09;14.20;99.90
41904;DHT22;27586;51.124;4.182;2024-02-16T12:50:36;14.40;99.90
41904;DHT22;27586;51.124;4.182;2024-02-16T12:53:03;14.40;99.90
41904;DHT22;27586;51.124;4.182;2024-02-16T12:55:29;14.50;99.90
41904;DHT22;27586;51.124;4.182;2024-02-16T12:57:56;14.40;99.90
41904;DHT22;27586;51.124;4.182;2024-02-16T13:00:22;14.40;99.90
41904;DHT22;27586;51.124;4.182;2024-02-16T13:02:47;14.30;99.90
41904;DHT22;27586;51.124;4.182;2024-02-16T13:05:13;14.30;99.90
41904;DHT22;27586;51.124;4.182;2024-02-16T13:07:39;14.40;99.90
41904;DHT22;27586;51.124;4.182;2024-02-16T13:10:08;14.40;99.90
41904;DHT22;27586;51.124;4.182;2024-02-16T13:12:34;14.50;99.90
41904;DHT22;27586;51.124;4.182;2024-02-16T13:14:59;14.50;99.90
41904;DHT22;27586;51.124;4.182;2024-02-16T13:17:25;14.50;99.90
41904;DHT22;27586;51.124;4.182;2024-02-16T13:19:52;14.50;99.90
41904;DHT22;27586;51.124;4.182;2024-02-16T13:22:18;14.60;99.90
41904;DHT22;27586;51.124;4.182;2024-02-16T13:24:43;14.70;99.90
41904;DHT22;27586;51.124;4.182;2024-02-16T13:27:09;14.80;99.90
41904;DHT22;27586;51.124;4.182;2024-02-16T13:29:35;14.80;99.90
41904;DHT22;27586;51.124;4.182;2024-02-16T13:32:01;14.80;99.90
41904;DHT22;27586;51.124;4.182;2024-02-16T13:34:29;14.70;99.90
41904;DHT22;27586;51.124;4.182;2024-02-16T13:36:55;14.80;99.90
41904;DHT22;27586;51.124;4.182;2024-02-16T13:39:21;14.80;99.90
41904;DHT22;27586;51.124;4.182;2024-02-16T13:41:48;14.70;99.90
41904;DHT22;27586;51.124;4.182;2024-02-16T13:44:17;14.70;99.90
41904;DHT22;27586;51.124;4.182;2024-02-16T13:46:45;14.60;99.90
41904;DHT22;27586;51.124;4.182;2024-02-16T13:49:13;14.50;99.90
41904;DHT22;27586;51.124;4.182;2024-02-16T13:51:40;14.60;99.90
41904;DHT22;27586;51.124;4.182;2024-02-16T13:54:05;14.60;99.90
41904;DHT22;27586;51.124;4.182;2024-02-16T13:56:31;14.70;99.90
41904;DHT22;27586;51.124;4.182;2024-02-16T13:58:56;14.80;99.90
41904;DHT22;27586;51.124;4.182;2024-02-16T14:01:22;14.70;99.90
41904;DHT22;27586;51.124;4.182;2024-02-16T14:03:50;14.60;99.90
41904;DHT22;27586;51.124;4.182;2024-02-16T14:06:16;14.60;99.90
41904;DHT22;27586;51.124;4.182;2024-02-16T14:08:42;14.60;99.90
41904;DHT22;27586;51.124;4.182;2024-02-16T14:11:07;14.60;99.90
41904;DHT22;27586;51.124;4.182;2024-02-16T14:13:34;14.70;99.90
41904;DHT22;27586;51.124;4.182;2024-02-16T14:16:00;14.60;99.90
41904;DHT22;27586;51.124;4.182;2024-02-16T14:18:26;14.70;99.90
41904;DHT22;27586;51.124;4.182;2024-02-16T14:20:52;14.50;99.90
41904;DHT22;27586;51.124;4.182;2024-02-16T14:23:17;14.40;99.90
41904;DHT22;27586;51.124;4.182;2024-02-16T14:25:43;14.40;99.90
41904;DHT22;27586;51.124;4.182;2024-02-16T14:28:08;14.20;99.90
41904;DHT22;27586;51.124;4.182;2024-02-16T14:30:34;14.30;99.90
41904;DHT22;27586;51.124;4.182;2024-02-16T14:33:00;14.20;99.90
41904;DHT22;27586;51.124;4.182;2024-02-16T14:35:26;14.20;99.90
41904;DHT22;27586;51.124;4.182;2024-02-16T14:37:52;14.30;99.90
41904;DHT22;27586;51.124;4.182;2024-02-16T14:40:17;14.30;99.90
41904;DHT22;27586;51.124;4.182;2024-02-16T14:42:43;14.30;99.90
41904;DHT22;27586;51.124;4.182;2024-02-16T14:45:09;14.30;99.90
41904;DHT22;27586;51.124;4.182;2024-02-16T14:47:44;14.30;99.90
41904;DHT22;27586;51.124;4.182;2024-02-16T14:50:11;14.20;99.90
41904;DHT22;27586;51.124;4.182;2024-02-16T14:52:41;14.20;99.90
41904;DHT22;27586;51.124;4.182;2024-02-16T14:55:07;14.20;99.90
41904;DHT22;27586;51.124;4.182;2024-02-16T14:57:42;14.00;99.90
41904;DHT22;27586;51.124;4.182;2024-02-16T15:00:09;14.00;99.90
41904;DHT22;27586;51.124;4.182;2024-02-16T15:02:36;13.80;99.90
41904;DHT22;27586;51.124;4.182;2024-02-16T15:05:04;13.80;99.90
41904;DHT22;27586;51.124;4.182;2024-02-16T15:07:30;13.90;99.90
41904;DHT22;27586;51.124;4.182;2024-02-16T15:09:56;13.80;99.90
41904;DHT22;27586;51.124;4.182;2024-02-16T15:12:22;13.80;99.90
41904;DHT22;27586;51.124;4.182;2024-02-16T15:14:50;13.70;99.90
41904;DHT22;27586;51.124;4.182;2024-02-16T15:17:16;13.80;99.90
41904;DHT22;27586;51.124;4.182;2024-02-16T15:19:43;13.70;99.90
41904;DHT22;27586;51.124;4.182;2024-02-16T15:22:08;13.70;99.90
41904;DHT22;27586;51.124;4.182;2024-02-16T15:24:34;13.90;99.90
41904;DHT22;27586;51.124;4.182;2024-02-16T15:27:00;13.80;99.90